createdAt,value
2023-05-14T00:00:01.676Z,1006.84
2023-05-14T00:00:33.201Z,1006.84
2023-05-14T00:01:05.254Z,1006.84
2023-05-14T00:01:34.775Z,1007.11
2023-05-14T00:01:52.791Z,1007.11
2023-05-14T00:02:26.305Z,1007.11
2023-05-14T00:02:42.450Z,1006.94
2023-05-14T00:03:12.921Z,1006.94
2023-05-14T00:03:33.936Z,1006.74
2023-05-14T00:04:00.831Z,1006.74
2023-05-14T00:04:32.527Z,1006.74
2023-05-14T00:05:05.492Z,1006.94
2023-05-14T00:05:33.909Z,1006.74
2023-05-14T00:05:52.272Z,1006.74
2023-05-14T00:06:25.214Z,1006.74
2023-05-14T00:06:41.798Z,1006.94
2023-05-14T00:07:13.201Z,1006.94
2023-05-14T00:07:34.156Z,1006.74
2023-05-14T00:08:00.690Z,1006.74
2023-05-14T00:08:32.284Z,1006.74
2023-05-14T00:09:04.248Z,1006.64
2023-05-14T00:09:34.150Z,1006.84
2023-05-14T00:09:52.522Z,1006.84
2023-05-14T00:10:25.494Z,1006.84
2023-05-14T00:10:41.808Z,1006.94
2023-05-14T00:11:12.758Z,1006.94
2023-05-14T00:11:34.438Z,1006.94
2023-05-14T00:12:01.295Z,1006.94
2023-05-14T00:12:33.136Z,1006.94
2023-05-14T00:13:04.261Z,1006.74
2023-05-14T00:13:34.627Z,1006.94
2023-05-14T00:13:52.200Z,1006.94
2023-05-14T00:14:24.630Z,1006.94
2023-05-14T00:14:42.408Z,1006.74
2023-05-14T00:15:13.351Z,1006.74
2023-05-14T00:15:34.650Z,1006.84
2023-05-14T00:16:00.630Z,1006.84
2023-05-14T00:16:32.371Z,1006.84
2023-05-14T00:17:05.216Z,1006.74
2023-05-14T00:17:34.362Z,1006.84
2023-05-14T00:17:52.260Z,1006.84
2023-05-14T00:18:24.681Z,1006.84
2023-05-14T00:18:41.561Z,1006.74
2023-05-14T00:19:13.266Z,1006.74
2023-05-14T00:19:36.945Z,1006.53
2023-05-14T00:20:00.957Z,1006.53
2023-05-14T00:20:32.334Z,1006.53
2023-05-14T00:21:04.249Z,1006.84
2023-05-14T00:21:33.763Z,1006.74
2023-05-14T00:21:52.218Z,1006.74
2023-05-14T00:22:30.377Z,1006.74
2023-05-14T00:22:34.651Z,1006.84
2023-05-14T00:22:57.265Z,1006.84
2023-05-14T00:23:28.197Z,1006.84
2023-05-14T00:24:00.714Z,1006.53
2023-05-14T00:24:32.217Z,1006.53
2023-05-14T00:25:04.279Z,1006.74
2023-05-14T00:25:33.745Z,1006.74
2023-05-14T00:25:53.227Z,1006.74
2023-05-14T00:26:24.661Z,1006.74
2023-05-14T00:26:41.458Z,1006.74
2023-05-14T00:27:12.612Z,1006.74
2023-05-14T00:27:33.768Z,1006.84
2023-05-14T00:28:01.461Z,1006.84
2023-05-14T00:28:32.190Z,1006.84
2023-05-14T00:29:06.693Z,1006.53
2023-05-14T00:29:33.754Z,1006.74
2023-05-14T00:29:52.204Z,1006.74
2023-05-14T00:30:24.864Z,1006.74
2023-05-14T00:30:41.588Z,1006.84
2023-05-14T00:31:13.278Z,1006.84
2023-05-14T00:31:33.798Z,1006.53
2023-05-14T00:32:00.846Z,1006.53
2023-05-14T00:32:32.224Z,1006.53
2023-05-14T00:33:04.289Z,1006.84
2023-05-14T00:33:34.275Z,1006.84
2023-05-14T00:33:52.583Z,1006.84
2023-05-14T00:34:26.475Z,1006.84
2023-05-14T00:34:56.273Z,1006.64
2023-05-14T00:35:29.427Z,1006.64
2023-05-14T00:36:00.766Z,1006.74
2023-05-14T00:36:33.239Z,1006.74
2023-05-14T00:37:04.188Z,1006.43
2023-05-14T00:37:34.629Z,1006.43
2023-05-14T00:37:53.112Z,1006.43
2023-05-14T00:38:24.628Z,1006.43
2023-05-14T00:38:42.372Z,1006.53
2023-05-14T00:39:12.636Z,1006.53
2023-05-14T00:39:34.471Z,1006.64
2023-05-14T00:40:00.811Z,1006.64
2023-05-14T00:40:32.505Z,1006.64
2023-05-14T00:41:05.050Z,1006.53
2023-05-14T00:41:33.833Z,1006.64
2023-05-14T00:41:52.683Z,1006.64
2023-05-14T00:42:24.657Z,1006.64
2023-05-14T00:42:41.419Z,1006.64
2023-05-14T00:43:13.113Z,1006.64
2023-05-14T00:43:33.804Z,1006.64
2023-05-14T00:44:00.669Z,1006.64
2023-05-14T00:44:32.195Z,1006.64
2023-05-14T00:45:04.300Z,1006.74
2023-05-14T00:45:33.802Z,1006.53
2023-05-14T00:45:52.184Z,1006.53
2023-05-14T00:46:25.177Z,1006.53
2023-05-14T00:46:42.728Z,1006.23
2023-05-14T00:47:12.748Z,1006.23
2023-05-14T00:47:33.808Z,1006.43
2023-05-14T00:48:00.743Z,1006.43
2023-05-14T00:48:33.147Z,1006.43
2023-05-14T00:49:04.182Z,1006.53
2023-05-14T00:49:34.749Z,1006.64
2023-05-14T00:49:52.132Z,1006.64
2023-05-14T00:50:24.861Z,1006.64
2023-05-14T00:50:43.463Z,1006.64
2023-05-14T00:51:12.554Z,1006.64
2023-05-14T00:51:33.796Z,1006.64
2023-05-14T00:52:00.888Z,1006.64
2023-05-14T00:52:32.196Z,1006.64
2023-05-14T00:53:05.316Z,1006.53
2023-05-14T00:53:33.765Z,1006.74
2023-05-14T00:53:52.247Z,1006.74
2023-05-14T00:54:24.684Z,1006.74
2023-05-14T00:54:41.526Z,1006.64
2023-05-14T00:55:13.146Z,1006.64
2023-05-14T00:55:33.804Z,1006.53
2023-05-14T00:56:00.658Z,1006.53
2023-05-14T00:56:33.736Z,1006.53
2023-05-14T00:57:04.211Z,1006.53
2023-05-14T00:57:33.740Z,1006.43
2023-05-14T00:57:52.215Z,1006.43
2023-05-14T00:58:25.090Z,1006.43
2023-05-14T00:58:41.465Z,1006.53
2023-05-14T00:59:13.079Z,1006.53
2023-05-14T00:59:33.750Z,1006.53
2023-05-14T01:00:03.459Z,1006.53
2023-05-14T01:00:33.198Z,1006.53
2023-05-14T01:01:04.354Z,1006.43
2023-05-14T01:01:34.901Z,1006.43
2023-05-14T01:01:52.178Z,1006.43
2023-05-14T01:02:24.790Z,1006.43
2023-05-14T01:02:42.488Z,1006.33
2023-05-14T01:03:12.685Z,1006.33
2023-05-14T01:03:33.861Z,1006.33
2023-05-14T01:04:00.723Z,1006.33
2023-05-14T01:04:32.239Z,1006.33
2023-05-14T01:05:05.071Z,1006.43
2023-05-14T01:05:34.288Z,1006.53
2023-05-14T01:05:52.137Z,1006.53
2023-05-14T01:06:24.618Z,1006.53
2023-05-14T01:06:41.421Z,1006.43
2023-05-14T01:07:13.073Z,1006.43
2023-05-14T01:07:34.302Z,1006.33
2023-05-14T01:08:00.663Z,1006.33
2023-05-14T01:08:32.197Z,1006.33
2023-05-14T01:09:04.135Z,1006.43
2023-05-14T01:09:33.760Z,1006.53
2023-05-14T01:09:52.177Z,1006.53
2023-05-14T01:10:25.452Z,1006.53
2023-05-14T01:10:41.563Z,1006.74
2023-05-14T01:11:12.682Z,1006.74
2023-05-14T01:11:33.750Z,1006.64
2023-05-14T01:12:00.903Z,1006.64
2023-05-14T01:12:33.129Z,1006.64
2023-05-14T01:13:04.330Z,1006.33
2023-05-14T01:13:34.644Z,1006.33
2023-05-14T01:13:52.141Z,1006.33
2023-05-14T01:14:24.783Z,1006.33
2023-05-14T01:14:42.756Z,1006.53
2023-05-14T01:15:12.632Z,1006.53
2023-05-14T01:15:34.322Z,1006.33
2023-05-14T01:16:00.690Z,1006.33
2023-05-14T01:16:32.215Z,1006.33
2023-05-14T01:17:05.064Z,1006.33
2023-05-14T01:17:34.177Z,1006.33
2023-05-14T01:17:52.166Z,1006.33
2023-05-14T01:18:24.734Z,1006.33
2023-05-14T01:18:41.388Z,1006.33
2023-05-14T01:19:13.235Z,1006.33
2023-05-14T01:19:33.805Z,1006.53
2023-05-14T01:20:01.063Z,1006.53
2023-05-14T01:20:32.240Z,1006.53
2023-05-14T01:21:04.123Z,1006.43
2023-05-14T01:21:33.815Z,1006.43
2023-05-14T01:21:52.126Z,1006.43
2023-05-14T01:22:25.071Z,1006.43
2023-05-14T01:22:41.557Z,1006.43
2023-05-14T01:23:12.632Z,1006.43
2023-05-14T01:23:34.320Z,1006.43
2023-05-14T01:24:00.628Z,1006.43
2023-05-14T01:24:33.248Z,1006.43
2023-05-14T01:25:04.189Z,1006.33
2023-05-14T01:25:34.638Z,1006.43
2023-05-14T01:25:52.176Z,1006.43
2023-05-14T01:26:24.669Z,1006.43
2023-05-14T01:26:42.250Z,1006.33
2023-05-14T01:27:12.598Z,1006.33
2023-05-14T01:27:33.770Z,1006.23
2023-05-14T01:28:00.773Z,1006.23
2023-05-14T01:28:32.131Z,1006.23
2023-05-14T01:29:05.279Z,1006.43
2023-05-14T01:29:33.779Z,1006.33
2023-05-14T01:29:52.147Z,1006.33
2023-05-14T01:30:24.937Z,1006.33
2023-05-14T01:30:41.471Z,1006.13
2023-05-14T01:31:12.980Z,1006.13
2023-05-14T01:31:33.987Z,1006.43
2023-05-14T01:32:00.718Z,1006.43
2023-05-14T01:32:32.222Z,1006.43
2023-05-14T01:33:04.233Z,1006.23
2023-05-14T01:33:33.745Z,1006.53
2023-05-14T01:33:52.217Z,1006.53
2023-05-14T01:34:25.249Z,1006.53
2023-05-14T01:34:41.720Z,1006.33
2023-05-14T01:35:12.588Z,1006.33
2023-05-14T01:35:33.805Z,1006.33
2023-05-14T01:36:01.125Z,1006.33
2023-05-14T01:36:33.155Z,1006.33
2023-05-14T01:37:04.132Z,1006.43
2023-05-14T01:37:34.636Z,1006.43
2023-05-14T01:37:52.126Z,1006.43
2023-05-14T01:38:24.701Z,1006.43
2023-05-14T01:38:42.456Z,1006.23
2023-05-14T01:39:12.592Z,1006.23
2023-05-14T01:39:33.880Z,1006.64
2023-05-14T01:40:01.028Z,1006.64
2023-05-14T01:40:32.314Z,1006.64
2023-05-14T01:41:05.932Z,1006.64
2023-05-14T01:41:33.735Z,1006.53
2023-05-14T01:41:52.139Z,1006.53
2023-05-14T01:42:24.570Z,1006.53
2023-05-14T01:42:41.327Z,1006.43
2023-05-14T01:43:13.136Z,1006.43
2023-05-14T01:43:34.071Z,1006.23
2023-05-14T01:44:00.636Z,1006.23
2023-05-14T01:44:32.151Z,1006.23
2023-05-14T01:45:04.439Z,1006.43
2023-05-14T01:45:34.105Z,1006.53
2023-05-14T01:45:52.321Z,1006.53
2023-05-14T01:46:25.064Z,1006.53
2023-05-14T01:46:41.603Z,1006.53
2023-05-14T01:47:12.698Z,1006.53
2023-05-14T01:47:34.008Z,1006.43
2023-05-14T01:48:01.230Z,1006.43
2023-05-14T01:48:33.137Z,1006.43
2023-05-14T01:49:04.130Z,1006.43
2023-05-14T01:49:34.734Z,1006.43
2023-05-14T01:49:52.182Z,1006.43
2023-05-14T01:50:24.792Z,1006.43
2023-05-14T01:50:42.298Z,1006.33
2023-05-14T01:51:12.557Z,1006.33
2023-05-14T01:51:34.283Z,1006.33
2023-05-14T01:52:00.490Z,1006.33
2023-05-14T01:52:32.128Z,1006.33
2023-05-14T01:53:05.031Z,1006.43
2023-05-14T01:53:33.787Z,1006.43
2023-05-14T01:53:52.188Z,1006.43
2023-05-14T01:54:24.843Z,1006.43
2023-05-14T01:54:41.377Z,1006.33
2023-05-14T01:55:13.029Z,1006.33
2023-05-14T01:55:33.958Z,1006.43
2023-05-14T01:56:00.633Z,1006.43
2023-05-14T01:56:32.189Z,1006.43
2023-05-14T01:57:04.141Z,1006.53
2023-05-14T01:57:33.817Z,1006.43
2023-05-14T01:57:52.093Z,1006.43
2023-05-14T01:58:25.068Z,1006.43
2023-05-14T01:58:41.529Z,1006.23
2023-05-14T01:59:12.580Z,1006.23
2023-05-14T01:59:33.790Z,1006.43
2023-05-14T02:00:01.080Z,1006.43
2023-05-14T02:00:33.106Z,1006.43
2023-05-14T02:01:04.170Z,1006.23
2023-05-14T02:01:34.895Z,1006.43
2023-05-14T02:01:52.162Z,1006.43
2023-05-14T02:02:24.375Z,1006.43
2023-05-14T02:02:42.226Z,1006.43
2023-05-14T02:03:12.506Z,1006.43
2023-05-14T02:03:35.462Z,1006.43
2023-05-14T02:04:00.776Z,1006.43
2023-05-14T02:04:32.085Z,1006.43
2023-05-14T02:05:06.948Z,1006.43
2023-05-14T02:05:34.093Z,1006.13
2023-05-14T02:05:52.081Z,1006.13
2023-05-14T02:06:24.534Z,1006.13
2023-05-14T02:06:41.386Z,1006.43
2023-05-14T02:07:13.044Z,1006.43
2023-05-14T02:07:33.854Z,1006.33
2023-05-14T02:08:00.427Z,1006.33
2023-05-14T02:08:32.336Z,1006.33
2023-05-14T02:09:04.222Z,1006.43
2023-05-14T02:09:33.778Z,1006.64
2023-05-14T02:09:52.131Z,1006.64
2023-05-14T02:10:25.262Z,1006.64
2023-05-14T02:10:41.552Z,1006.43
2023-05-14T02:11:12.328Z,1006.43
2023-05-14T02:11:33.962Z,1006.53
2023-05-14T02:12:00.580Z,1006.53
2023-05-14T02:12:33.047Z,1006.53
2023-05-14T02:13:04.136Z,1006.23
2023-05-14T02:13:36.362Z,1006.53
2023-05-14T02:14:08.112Z,1006.53
2023-05-14T02:14:34.056Z,1006.43
2023-05-14T02:14:56.182Z,1006.43
2023-05-14T02:15:28.350Z,1006.43
2023-05-14T02:16:00.593Z,1006.53
2023-05-14T02:16:32.157Z,1006.53
2023-05-14T02:17:05.007Z,1006.33
2023-05-14T02:17:33.845Z,1006.33
2023-05-14T02:17:52.154Z,1006.33
2023-05-14T02:18:24.630Z,1006.33
2023-05-14T02:18:41.372Z,1006.23
2023-05-14T02:19:13.202Z,1006.23
2023-05-14T02:19:33.959Z,1006.43
2023-05-14T02:20:00.658Z,1006.43
2023-05-14T02:20:32.143Z,1006.43
2023-05-14T02:21:04.252Z,1006.33
2023-05-14T02:21:33.826Z,1006.53
2023-05-14T02:21:52.070Z,1006.53
2023-05-14T02:22:25.099Z,1006.53
2023-05-14T02:22:41.492Z,1006.23
2023-05-14T02:23:12.408Z,1006.23
2023-05-14T02:23:41.152Z,1006.53
2023-05-14T02:24:00.456Z,1006.53
2023-05-14T02:24:33.036Z,1006.53
2023-05-14T02:25:04.145Z,1006.23
2023-05-14T02:25:35.295Z,1006.43
2023-05-14T02:25:52.113Z,1006.43
2023-05-14T02:26:25.033Z,1006.43
2023-05-14T02:26:42.107Z,1006.23
2023-05-14T02:27:12.407Z,1006.23
2023-05-14T02:27:34.558Z,1006.13
2023-05-14T02:28:00.527Z,1006.13
2023-05-14T02:28:32.102Z,1006.13
2023-05-14T02:29:05.083Z,1006.33
2023-05-14T02:29:33.827Z,1006.23
2023-05-14T02:29:52.160Z,1006.23
2023-05-14T02:30:24.895Z,1006.23
2023-05-14T02:30:41.438Z,1006.43
2023-05-14T02:31:13.147Z,1006.43
2023-05-14T02:31:33.836Z,1006.33
2023-05-14T02:32:00.489Z,1006.33
2023-05-14T02:32:32.178Z,1006.33
2023-05-14T02:33:04.346Z,1006.13
2023-05-14T02:33:33.836Z,1006.23
2023-05-14T02:33:52.240Z,1006.23
2023-05-14T02:34:25.300Z,1006.23
2023-05-14T02:34:41.599Z,1006.33
2023-05-14T02:35:12.478Z,1006.33
2023-05-14T02:35:33.934Z,1006.33
2023-05-14T02:36:00.418Z,1006.33
2023-05-14T02:36:32.833Z,1006.33
2023-05-14T02:37:04.136Z,1006.33
2023-05-14T02:37:34.835Z,1006.33
2023-05-14T02:37:52.087Z,1006.33
2023-05-14T02:38:24.524Z,1006.33
2023-05-14T02:38:42.303Z,1006.13
2023-05-14T02:39:12.051Z,1006.13
2023-05-14T02:39:34.294Z,1006.33
2023-05-14T02:40:00.151Z,1006.33
2023-05-14T02:40:32.113Z,1006.33
2023-05-14T02:41:04.838Z,1006.13
2023-05-14T02:41:33.898Z,1006.43
2023-05-14T02:41:52.094Z,1006.43
2023-05-14T02:42:24.454Z,1006.43
2023-05-14T02:42:41.351Z,1006.33
2023-05-14T02:43:13.148Z,1006.33
2023-05-14T02:43:35.538Z,1006.43
2023-05-14T02:44:00.129Z,1006.43
2023-05-14T02:44:32.102Z,1006.43
2023-05-14T02:45:04.210Z,1006.23
2023-05-14T02:45:33.809Z,1006.23
2023-05-14T02:45:52.230Z,1006.23
2023-05-14T02:46:25.220Z,1006.23
2023-05-14T02:46:41.796Z,1006.23
2023-05-14T02:47:12.352Z,1006.23
2023-05-14T02:47:36.120Z,1006.33
2023-05-14T02:48:00.423Z,1006.33
2023-05-14T02:48:32.926Z,1006.33
2023-05-14T02:49:04.108Z,1006.13
2023-05-14T02:49:35.361Z,1006.03
2023-05-14T02:50:07.519Z,1006.03
2023-05-14T02:50:24.679Z,1006.03
2023-05-14T02:50:43.312Z,1006.23
2023-05-14T02:51:12.382Z,1006.23
2023-05-14T02:51:34.117Z,1006.23
2023-05-14T02:52:00.323Z,1006.23
2023-05-14T02:52:32.126Z,1006.23
2023-05-14T02:53:04.982Z,1006.43
2023-05-14T02:53:33.905Z,1006.33
2023-05-14T02:53:52.170Z,1006.33
2023-05-14T02:54:24.167Z,1006.33
2023-05-14T02:54:41.305Z,1006.13
2023-05-14T02:55:13.181Z,1006.13
2023-05-14T02:55:33.880Z,1006.33
2023-05-14T02:56:00.114Z,1006.33
2023-05-14T02:56:32.090Z,1006.33
2023-05-14T02:57:04.079Z,1006.43
2023-05-14T02:57:33.880Z,1006.33
2023-05-14T02:57:52.124Z,1006.33
2023-05-14T02:58:28.893Z,1006.33
2023-05-14T02:58:56.033Z,1006.33
2023-05-14T02:59:28.122Z,1006.33
2023-05-14T03:00:00.090Z,1006.33
2023-05-14T03:00:32.178Z,1006.33
2023-05-14T03:01:04.355Z,1006.23
2023-05-14T03:01:33.792Z,1006.23
2023-05-14T03:01:52.989Z,1006.23
2023-05-14T03:02:24.095Z,1006.23
2023-05-14T03:02:41.442Z,1006.23
2023-05-14T03:03:12.067Z,1006.23
2023-05-14T03:03:34.310Z,1006.23
2023-05-14T03:04:01.391Z,1006.23
2023-05-14T03:04:32.101Z,1006.23
2023-05-14T03:05:05.075Z,1006.33
2023-05-14T03:05:33.889Z,1006.33
2023-05-14T03:05:52.122Z,1006.33
2023-05-14T03:06:30.273Z,1006.33
2023-05-14T03:06:34.576Z,1006.33
2023-05-14T03:06:56.100Z,1006.33
2023-05-14T03:07:28.119Z,1006.33
2023-05-14T03:08:06.283Z,1006.33
2023-05-14T03:08:16.891Z,1006.23
2023-05-14T03:08:48.030Z,1006.53
2023-05-14T03:09:21.099Z,1006.53
2023-05-14T03:09:38.572Z,1006.33
2023-05-14T03:10:08.071Z,1006.33
2023-05-14T03:10:33.782Z,1006.13
2023-05-14T03:10:56.045Z,1006.13
2023-05-14T03:11:28.991Z,1006.13
2023-05-14T03:12:00.026Z,1006.23
2023-05-14T03:12:32.994Z,1006.23
2023-05-14T03:13:04.172Z,1006.33
2023-05-14T03:13:34.653Z,1006.23
2023-05-14T03:13:52.112Z,1006.23
2023-05-14T03:14:24.124Z,1006.23
2023-05-14T03:14:42.214Z,1006.23
2023-05-14T03:15:20.657Z,1006.23
2023-05-14T03:15:28.069Z,1006.23
2023-05-14T03:16:00.697Z,1006.13
2023-05-14T03:16:32.242Z,1006.13
2023-05-14T03:17:04.197Z,1006.43
2023-05-14T03:17:33.830Z,1006.33
2023-05-14T03:17:53.158Z,1006.33
2023-05-14T03:18:24.182Z,1006.33
2023-05-14T03:18:41.308Z,1006.13
2023-05-14T03:19:12.095Z,1006.13
2023-05-14T03:19:33.892Z,1006.23
2023-05-14T03:20:01.921Z,1006.23
2023-05-14T03:20:32.045Z,1006.23
2023-05-14T03:21:05.142Z,1006.33
2023-05-14T03:21:33.911Z,1006.13
2023-05-14T03:21:52.119Z,1006.13
2023-05-14T03:22:24.095Z,1006.13
2023-05-14T03:22:41.256Z,1006.43
2023-05-14T03:23:13.235Z,1006.43
2023-05-14T03:23:35.061Z,1006.43
2023-05-14T03:24:00.023Z,1006.43
2023-05-14T03:24:32.071Z,1006.43
2023-05-14T03:25:04.106Z,1006.13
2023-05-14T03:25:33.854Z,1006.33
2023-05-14T03:25:52.050Z,1006.33
2023-05-14T03:26:25.235Z,1006.33
2023-05-14T03:26:41.475Z,1006.13
2023-05-14T03:27:12.130Z,1006.13
2023-05-14T03:27:33.798Z,1006.43
2023-05-14T03:28:00.038Z,1006.43
2023-05-14T03:28:32.971Z,1006.43
2023-05-14T03:29:04.167Z,1006.13
2023-05-14T03:29:34.779Z,1006.43
2023-05-14T03:29:52.028Z,1006.43
2023-05-14T03:30:24.517Z,1006.43
2023-05-14T03:30:42.222Z,1006.13
2023-05-14T03:31:12.078Z,1006.13
2023-05-14T03:31:33.769Z,1006.23
2023-05-14T03:32:00.033Z,1006.23
2023-05-14T03:32:34.638Z,1006.23
2023-05-14T03:33:04.994Z,1006.23
2023-05-14T03:33:33.791Z,1006.33
2023-05-14T03:33:52.060Z,1006.33
2023-05-14T03:34:24.003Z,1006.33
2023-05-14T03:34:41.304Z,1006.03
2023-05-14T03:35:13.297Z,1006.03
2023-05-14T03:35:33.834Z,1006.33
2023-05-14T03:36:00.106Z,1006.33
2023-05-14T03:36:32.066Z,1006.33
2023-05-14T03:37:04.126Z,1006.33
2023-05-14T03:37:33.796Z,1006.23
2023-05-14T03:37:52.036Z,1006.23
2023-05-14T03:38:25.282Z,1006.23
2023-05-14T03:38:58.333Z,1006.33
2023-05-14T03:39:28.911Z,1006.33
2023-05-14T03:40:01.280Z,1006.23
2023-05-14T03:40:32.945Z,1006.23
2023-05-14T03:41:04.111Z,1006.23
2023-05-14T03:41:34.993Z,1006.33
2023-05-14T03:42:08.018Z,1006.33
2023-05-14T03:42:33.759Z,1006.23
2023-05-14T03:42:56.037Z,1006.23
2023-05-14T03:43:28.089Z,1006.23
2023-05-14T03:44:01.609Z,1006.03
2023-05-14T03:44:32.147Z,1006.03
2023-05-14T03:45:05.064Z,1006.13
2023-05-14T03:45:33.888Z,1006.33
2023-05-14T03:45:52.056Z,1006.33
2023-05-14T03:46:24.130Z,1006.33
2023-05-14T03:46:41.367Z,1006.23
2023-05-14T03:47:13.413Z,1006.23
2023-05-14T03:47:33.909Z,1006.23
2023-05-14T03:48:00.163Z,1006.23
2023-05-14T03:48:32.266Z,1006.23
2023-05-14T03:49:04.206Z,1006.13
2023-05-14T03:49:33.813Z,1006.23
2023-05-14T03:49:52.247Z,1006.23
2023-05-14T03:50:25.652Z,1006.23
2023-05-14T03:50:57.121Z,1006.13
2023-05-14T03:51:29.058Z,1006.13
2023-05-14T03:52:00.121Z,1006.43
2023-05-14T03:52:32.934Z,1006.43
2023-05-14T03:53:04.105Z,1006.33
2023-05-14T03:53:34.739Z,1006.23
2023-05-14T03:53:52.080Z,1006.23
2023-05-14T03:54:24.063Z,1006.23
2023-05-14T03:54:42.337Z,1006.33
2023-05-14T03:55:12.108Z,1006.33
2023-05-14T03:55:34.284Z,1006.23
2023-05-14T03:56:00.063Z,1006.23
2023-05-14T03:56:32.151Z,1006.23
2023-05-14T03:57:05.262Z,1006.43
2023-05-14T03:57:34.352Z,1006.23
2023-05-14T03:57:52.053Z,1006.23
2023-05-14T03:58:24.135Z,1006.23
2023-05-14T03:58:41.297Z,1006.33
2023-05-14T03:59:13.377Z,1006.33
2023-05-14T03:59:34.010Z,1006.23
2023-05-14T04:00:00.057Z,1006.23
2023-05-14T04:00:32.157Z,1006.23
2023-05-14T04:01:04.109Z,1006.03
2023-05-14T04:01:33.817Z,1006.53
2023-05-14T04:01:52.248Z,1006.53
2023-05-14T04:02:25.415Z,1006.53
2023-05-14T04:02:57.315Z,1006.33
2023-05-14T04:03:29.113Z,1006.33
2023-05-14T04:04:00.179Z,1006.23
2023-05-14T04:04:33.162Z,1006.23
2023-05-14T04:05:04.094Z,1006.43
2023-05-14T04:05:34.696Z,1006.33
2023-05-14T04:05:52.139Z,1006.33
2023-05-14T04:06:24.161Z,1006.33
2023-05-14T04:06:42.208Z,1006.23
2023-05-14T04:07:12.017Z,1006.23
2023-05-14T04:07:33.821Z,1006.33
2023-05-14T04:08:00.096Z,1006.33
2023-05-14T04:08:32.246Z,1006.33
2023-05-14T04:09:05.168Z,1006.33
2023-05-14T04:09:33.869Z,1006.23
2023-05-14T04:09:52.137Z,1006.23
2023-05-14T04:10:24.279Z,1006.23
2023-05-14T04:10:41.304Z,1006.33
2023-05-14T04:11:13.310Z,1006.33
2023-05-14T04:11:33.820Z,1006.33
2023-05-14T04:12:00.074Z,1006.33
2023-05-14T04:12:32.167Z,1006.33
2023-05-14T04:13:04.135Z,1006.23
2023-05-14T04:13:33.909Z,1006.33
2023-05-14T04:13:52.048Z,1006.33
2023-05-14T04:14:25.345Z,1006.33
2023-05-14T04:14:57.152Z,1006.33
2023-05-14T04:15:29.148Z,1006.33
2023-05-14T04:16:00.107Z,1006.33
2023-05-14T04:16:33.012Z,1006.33
2023-05-14T04:17:04.105Z,1006.13
2023-05-14T04:17:35.279Z,1006.33
2023-05-14T04:17:52.125Z,1006.33
2023-05-14T04:18:24.029Z,1006.33
2023-05-14T04:18:42.594Z,1006.23
2023-05-14T04:19:12.262Z,1006.23
2023-05-14T04:19:33.773Z,1006.23
2023-05-14T04:20:11.948Z,1006.23
2023-05-14T04:20:16.214Z,1006.23
2023-05-14T04:20:33.845Z,1006.43
2023-05-14T04:21:05.105Z,1006.43
2023-05-14T04:21:33.791Z,1006.33
2023-05-14T04:21:52.106Z,1006.33
2023-05-14T04:22:24.109Z,1006.33
2023-05-14T04:22:41.281Z,1006.23
2023-05-14T04:23:13.424Z,1006.23
2023-05-14T04:23:33.866Z,1006.23
2023-05-14T04:24:00.099Z,1006.23
2023-05-14T04:24:32.125Z,1006.23
2023-05-14T04:25:04.128Z,1006.33
2023-05-14T04:25:34.089Z,1006.23
2023-05-14T04:25:52.099Z,1006.23
2023-05-14T04:26:25.806Z,1006.23
2023-05-14T04:26:56.132Z,1006.23
2023-05-14T04:27:29.092Z,1006.23
2023-05-14T04:28:00.124Z,1006.23
2023-05-14T04:28:32.859Z,1006.23
2023-05-14T04:29:04.166Z,1006.23
2023-05-14T04:29:34.795Z,1006.23
2023-05-14T04:29:52.241Z,1006.23
2023-05-14T04:30:24.462Z,1006.23
2023-05-14T04:30:42.280Z,1006.33
2023-05-14T04:31:12.060Z,1006.33
2023-05-14T04:31:33.855Z,1006.03
2023-05-14T04:32:00.163Z,1006.03
2023-05-14T04:32:32.150Z,1006.03
2023-05-14T04:33:04.895Z,1006.13
2023-05-14T04:33:33.959Z,1006.23
2023-05-14T04:33:52.000Z,1006.23
2023-05-14T04:34:24.184Z,1006.23
2023-05-14T04:34:41.484Z,1006.33
2023-05-14T04:35:13.492Z,1006.33
2023-05-14T04:35:33.777Z,1006.23
2023-05-14T04:35:59.992Z,1006.23
2023-05-14T04:36:32.065Z,1006.23
2023-05-14T04:37:04.074Z,1006.33
2023-05-14T04:37:33.838Z,1006.23
2023-05-14T04:37:52.142Z,1006.23
2023-05-14T04:38:25.274Z,1006.23
2023-05-14T04:38:41.853Z,1006.23
2023-05-14T04:39:20.016Z,1006.23
2023-05-14T04:39:30.438Z,1006.23
2023-05-14T04:40:00.166Z,1006.33
2023-05-14T04:40:32.949Z,1006.33
2023-05-14T04:41:04.341Z,1006.43
2023-05-14T04:41:35.422Z,1006.33
2023-05-14T04:41:52.086Z,1006.33
2023-05-14T04:42:24.054Z,1006.33
2023-05-14T04:42:42.090Z,1006.33
2023-05-14T04:43:12.290Z,1006.33
2023-05-14T04:43:33.837Z,1006.33
2023-05-14T04:44:00.101Z,1006.33
2023-05-14T04:44:32.020Z,1006.33
2023-05-14T04:45:05.040Z,1006.33
2023-05-14T04:45:34.467Z,1006.43
2023-05-14T04:45:52.146Z,1006.43
2023-05-14T04:46:24.225Z,1006.43
2023-05-14T04:46:41.944Z,1006.33
2023-05-14T04:47:13.299Z,1006.33
2023-05-14T04:47:34.178Z,1006.13
2023-05-14T04:48:00.141Z,1006.13
2023-05-14T04:48:32.209Z,1006.13
2023-05-14T04:49:04.147Z,1006.43
2023-05-14T04:49:33.792Z,1006.23
2023-05-14T04:49:51.968Z,1006.23
2023-05-14T04:50:25.705Z,1006.23
2023-05-14T04:50:43.076Z,1006.43
2023-05-14T04:51:12.000Z,1006.43
2023-05-14T04:51:33.846Z,1006.03
2023-05-14T04:51:59.988Z,1006.03
2023-05-14T04:52:32.897Z,1006.03
2023-05-14T04:53:04.115Z,1006.23
2023-05-14T04:53:34.664Z,1006.33
2023-05-14T04:53:52.552Z,1006.33
2023-05-14T04:54:24.120Z,1006.33
2023-05-14T04:54:42.314Z,1006.13
2023-05-14T04:55:11.977Z,1006.13
2023-05-14T04:55:33.804Z,1006.33
2023-05-14T04:56:00.029Z,1006.33
2023-05-14T04:56:31.976Z,1006.33
2023-05-14T04:57:05.030Z,1006.43
2023-05-14T04:57:33.823Z,1006.23
2023-05-14T04:57:52.086Z,1006.23
2023-05-14T04:58:24.044Z,1006.23
2023-05-14T04:58:41.292Z,1006.43
2023-05-14T04:59:13.514Z,1006.43
2023-05-14T04:59:33.781Z,1006.43
2023-05-14T05:00:03.459Z,1006.43
2023-05-14T05:00:32.042Z,1006.43
2023-05-14T05:01:04.616Z,1006.33
2023-05-14T05:01:33.808Z,1006.33
2023-05-14T05:01:51.966Z,1006.33
2023-05-14T05:02:25.323Z,1006.33
2023-05-14T05:02:41.906Z,1006.43
2023-05-14T05:03:12.129Z,1006.43
2023-05-14T05:03:33.990Z,1006.33
2023-05-14T05:04:00.013Z,1006.33
2023-05-14T05:04:33.054Z,1006.33
2023-05-14T05:05:04.050Z,1006.43
2023-05-14T05:05:34.833Z,1006.43
2023-05-14T05:05:51.959Z,1006.43
2023-05-14T05:06:24.155Z,1006.43
2023-05-14T05:06:42.100Z,1006.53
2023-05-14T05:07:13.563Z,1006.53
2023-05-14T05:07:33.783Z,1006.43
2023-05-14T05:08:00.021Z,1006.43
2023-05-14T05:08:32.062Z,1006.43
2023-05-14T05:09:05.052Z,1006.33
2023-05-14T05:09:33.787Z,1006.43
2023-05-14T05:09:51.981Z,1006.43
2023-05-14T05:10:24.510Z,1006.43
2023-05-14T05:10:41.616Z,1006.33
2023-05-14T05:11:13.279Z,1006.33
2023-05-14T05:11:33.776Z,1006.43
2023-05-14T05:12:00.120Z,1006.43
2023-05-14T05:12:31.975Z,1006.43
2023-05-14T05:13:04.076Z,1006.23
2023-05-14T05:13:34.583Z,1006.53
2023-05-14T05:13:52.024Z,1006.53
2023-05-14T05:14:25.275Z,1006.53
2023-05-14T05:14:42.019Z,1006.43
2023-05-14T05:15:12.173Z,1006.43
2023-05-14T05:15:33.788Z,1006.43
2023-05-14T05:16:00.155Z,1006.43
2023-05-14T05:16:32.233Z,1006.43
2023-05-14T05:17:04.949Z,1006.33
2023-05-14T05:17:33.833Z,1006.53
2023-05-14T05:17:52.110Z,1006.53
2023-05-14T05:18:24.043Z,1006.53
2023-05-14T05:18:41.393Z,1006.53
2023-05-14T05:19:13.434Z,1006.53
2023-05-14T05:19:43.087Z,1006.33
2023-05-14T05:20:00.065Z,1006.33
2023-05-14T05:20:33.735Z,1006.33
2023-05-14T05:21:04.045Z,1006.23
2023-05-14T05:21:35.223Z,1006.53
2023-05-14T05:21:52.010Z,1006.53
2023-05-14T05:22:25.307Z,1006.53
2023-05-14T05:22:41.894Z,1006.64
2023-05-14T05:23:12.016Z,1006.64
2023-05-14T05:23:34.161Z,1006.64
2023-05-14T05:24:00.059Z,1006.64
2023-05-14T05:24:33.073Z,1006.64
2023-05-14T05:25:03.987Z,1006.53
2023-05-14T05:25:34.684Z,1006.43
2023-05-14T05:25:52.073Z,1006.43